Anthony, West Virginia
Current Conditions -  °F | °C
As of 11:15 AM on Thursday 30 Oct 2014 (Local Time) from KLWB Reporting Station
Overcast Overcast  
Wind Chill: 45°   Ceiling: 2900
Heat Index: 45°   Visibility: 10mi
Dew Point: 33°   Wind: 3mph
Humidity: 64%   Direction: 330°NNW
Pressure: 30.1"   Gusts: NA
Location:  38.0307°N, 80.4756°W
Report Text: KLWB 301515Z AUTO 33003KT 10SM OVC029 07/01 A3010 RMK AO2 T00700007
Loading
Personal Weather Stations






























Interactive Weather Map New forecast layout! Learn more

10-Day Weather Forecast

Advertisements
Track Severe Weather on mobile